createdAt,value
2018-07-28T00:01:00.234Z,22.60
2018-07-28T00:03:27.395Z,22.50
2018-07-28T00:05:54.559Z,22.50
2018-07-28T00:08:21.727Z,22.50
2018-07-28T00:10:48.898Z,22.40
2018-07-28T00:13:16.049Z,22.40
2018-07-28T00:15:43.202Z,22.40
2018-07-28T00:18:10.376Z,22.40
2018-07-28T00:20:37.533Z,22.30
2018-07-28T00:23:04.820Z,22.20
2018-07-28T00:25:37.538Z,22.10
2018-07-28T00:28:05.486Z,22.10
2018-07-28T00:30:32.647Z,22.10
2018-07-28T00:32:59.782Z,22.00
2018-07-28T00:35:26.942Z,22.00
2018-07-28T00:37:54.110Z,21.90
2018-07-28T00:40:21.271Z,21.90
2018-07-28T00:42:48.417Z,21.90
2018-07-28T00:45:15.576Z,21.80
2018-07-28T00:47:42.728Z,21.70
2018-07-28T00:50:10.092Z,21.70
2018-07-28T00:52:37.650Z,21.70
2018-07-28T00:55:05.223Z,21.60
2018-07-28T00:57:32.382Z,21.50
2018-07-28T00:59:59.543Z,21.50
2018-07-28T01:02:26.731Z,21.50
2018-07-28T01:04:54.942Z,21.50
2018-07-28T01:07:22.151Z,21.50
2018-07-28T01:09:49.439Z,21.50
2018-07-28T01:12:16.652Z,21.60
2018-07-28T01:14:43.847Z,21.50
2018-07-28T01:17:11.057Z,21.60
2018-07-28T01:19:38.242Z,21.60
2018-07-28T01:22:05.455Z,21.50
2018-07-28T01:24:32.949Z,21.50
2018-07-28T01:27:00.295Z,21.50
2018-07-28T01:29:27.475Z,21.50
2018-07-28T01:31:54.700Z,21.40
2018-07-28T01:34:21.904Z,21.40
2018-07-28T01:36:49.121Z,21.40
2018-07-28T01:39:16.315Z,21.40
2018-07-28T01:41:43.884Z,21.40
2018-07-28T01:44:11.131Z,21.40
2018-07-28T01:46:38.619Z,21.40
2018-07-28T01:49:06.386Z,21.40
2018-07-28T01:51:34.019Z,21.50
2018-07-28T01:54:01.224Z,21.60
2018-07-28T01:56:28.519Z,21.50
2018-07-28T02:01:23.452Z,21.50
2018-07-28T02:03:50.648Z,21.60
2018-07-28T02:06:17.839Z,21.60
2018-07-28T02:08:45.072Z,21.60
2018-07-28T02:11:12.262Z,21.60
2018-07-28T02:13:39.859Z,21.60
2018-07-28T02:16:07.219Z,21.60
2018-07-28T02:18:34.418Z,21.60
2018-07-28T02:21:01.675Z,21.60
2018-07-28T02:23:28.886Z,21.50
2018-07-28T02:25:56.085Z,21.40
2018-07-28T02:28:23.300Z,21.30
2018-07-28T02:30:50.503Z,21.20
2018-07-28T02:33:17.970Z,21.10
2018-07-28T02:35:45.232Z,21.00
2018-07-28T02:38:12.465Z,20.90
2018-07-28T02:40:39.699Z,21.00
2018-07-28T02:43:06.928Z,20.90
2018-07-28T02:45:34.203Z,20.90
2018-07-28T02:48:01.416Z,21.00
2018-07-28T02:50:28.639Z,21.20
2018-07-28T02:52:55.841Z,21.30
2018-07-28T02:55:23.057Z,21.40
2018-07-28T02:57:50.255Z,21.50
2018-07-28T03:00:17.493Z,21.50
2018-07-28T03:02:44.670Z,21.50
2018-07-28T03:07:39.144Z,21.60
2018-07-28T03:10:07.046Z,21.60
2018-07-28T03:12:34.304Z,21.60
2018-07-28T03:15:05.052Z,21.70
2018-07-28T03:17:32.259Z,21.60
2018-07-28T03:19:59.456Z,21.60
2018-07-28T03:22:26.652Z,21.60
2018-07-28T03:24:54.230Z,21.50
2018-07-28T03:27:21.443Z,21.40
2018-07-28T03:29:48.631Z,21.30
2018-07-28T03:32:15.819Z,21.20
2018-07-28T03:34:43.004Z,21.30
2018-07-28T03:37:10.207Z,21.30
2018-07-28T03:39:37.491Z,21.30
2018-07-28T03:42:04.696Z,21.30
2018-07-28T03:44:31.886Z,21.30
2018-07-28T03:46:59.075Z,21.30
2018-07-28T03:49:26.266Z,21.30
2018-07-28T03:51:53.546Z,21.30
2018-07-28T03:54:20.743Z,21.20
2018-07-28T03:56:47.934Z,21.20
2018-07-28T03:59:15.132Z,21.30
2018-07-28T04:04:09.532Z,21.50
2018-07-28T04:06:36.767Z,21.50
2018-07-28T04:09:06.527Z,21.30
2018-07-28T04:11:33.747Z,21.20
2018-07-28T04:14:00.952Z,21.20
2018-07-28T04:16:28.139Z,21.10
2018-07-28T04:18:55.322Z,21.00
2018-07-28T04:21:22.511Z,21.00
2018-07-28T04:23:49.703Z,21.00
2018-07-28T04:26:16.907Z,21.00
2018-07-28T04:28:44.099Z,21.00
2018-07-28T04:31:11.278Z,21.10
2018-07-28T04:33:38.452Z,21.10
2018-07-28T04:36:05.655Z,21.10
2018-07-28T04:38:32.840Z,21.10
2018-07-28T04:41:00.047Z,21.10
2018-07-28T04:43:27.228Z,21.10
2018-07-28T04:48:21.646Z,21.40
2018-07-28T04:50:48.843Z,21.50
2018-07-28T04:53:16.076Z,21.50
2018-07-28T04:55:43.270Z,21.50
2018-07-28T04:58:10.453Z,21.50
2018-07-28T05:00:37.686Z,21.60
2018-07-28T05:03:04.860Z,21.60
2018-07-28T05:05:32.028Z,21.50
2018-07-28T05:07:59.199Z,21.50
2018-07-28T05:10:26.363Z,21.60
2018-07-28T05:12:53.626Z,21.70
2018-07-28T05:15:20.820Z,21.70
2018-07-28T05:17:47.990Z,21.70
2018-07-28T05:22:42.357Z,21.80
2018-07-28T05:25:09.527Z,21.90
2018-07-28T05:27:36.699Z,22.00
2018-07-28T05:30:05.609Z,22.10
2018-07-28T05:32:32.799Z,22.30
2018-07-28T05:34:59.989Z,22.40
2018-07-28T05:39:54.788Z,22.60
2018-07-28T05:42:22.007Z,22.70
2018-07-28T05:44:49.334Z,22.70
2018-07-28T05:47:16.506Z,22.80
2018-07-28T05:49:43.659Z,22.90
2018-07-28T05:52:10.831Z,22.90
2018-07-28T05:54:37.982Z,22.80
2018-07-28T05:57:05.175Z,22.70
2018-07-28T05:59:32.343Z,22.60
2018-07-28T06:01:59.783Z,22.50
2018-07-28T06:04:26.980Z,22.40
2018-07-28T06:06:54.176Z,22.40
2018-07-28T06:09:21.368Z,22.50
2018-07-28T06:11:48.562Z,22.50
2018-07-28T06:14:15.777Z,22.50
2018-07-28T06:16:42.961Z,22.60
2018-07-28T06:19:10.179Z,22.70
2018-07-28T06:21:37.376Z,22.80
2018-07-28T06:24:04.714Z,22.80
2018-07-28T06:26:31.917Z,22.80
2018-07-28T06:28:59.103Z,22.90
2018-07-28T06:31:26.299Z,23.00
2018-07-28T06:33:53.595Z,22.90
2018-07-28T06:36:20.776Z,23.10
2018-07-28T06:41:15.278Z,23.20
2018-07-28T06:43:42.464Z,23.20
2018-07-28T06:46:09.742Z,23.20
2018-07-28T06:53:31.854Z,23.80
2018-07-28T06:55:59.135Z,24.20
2018-07-28T06:58:26.380Z,24.30
2018-07-28T07:00:53.567Z,24.50
2018-07-28T07:03:20.822Z,24.90
2018-07-28T07:05:48.043Z,25.50
2018-07-28T07:08:15.297Z,26.50
2018-07-28T07:10:42.512Z,27.80
2018-07-28T07:13:09.726Z,28.40
2018-07-28T07:15:36.926Z,28.80
2018-07-28T07:18:04.136Z,28.90
2018-07-28T07:20:31.364Z,28.90
2018-07-28T07:22:58.641Z,28.80
2018-07-28T07:25:25.855Z,28.90
2018-07-28T07:30:20.445Z,28.30
2018-07-28T07:32:47.878Z,27.90
2018-07-28T07:35:16.413Z,27.30
2018-07-28T07:37:43.736Z,26.40
2018-07-28T07:40:10.906Z,26.10
2018-07-28T07:42:38.122Z,27.00
2018-07-28T07:45:05.571Z,28.20
2018-07-28T07:47:32.864Z,28.70
2018-07-28T07:49:59.987Z,29.00
2018-07-28T07:52:27.179Z,29.10
2018-07-28T07:54:54.391Z,29.30
2018-07-28T07:57:21.634Z,29.20
2018-07-28T07:59:48.816Z,28.50
2018-07-28T08:02:15.987Z,28.10
2018-07-28T08:04:43.209Z,27.20
2018-07-28T08:07:10.383Z,27.10
2018-07-28T08:09:37.567Z,27.50
2018-07-28T08:12:04.956Z,27.60
2018-07-28T08:14:32.134Z,27.50
2018-07-28T08:16:59.294Z,27.20
2018-07-28T08:19:26.459Z,27.10
2018-07-28T08:21:53.631Z,27.00
2018-07-28T08:24:20.843Z,27.60
2018-07-28T08:26:48.006Z,27.70
2018-07-28T08:29:15.197Z,27.10
2018-07-28T08:31:42.364Z,26.30
2018-07-28T08:34:09.518Z,25.60
2018-07-28T08:36:36.779Z,24.90
2018-07-28T08:39:08.383Z,24.30
2018-07-28T08:41:35.551Z,23.50
2018-07-28T08:44:02.731Z,22.70
2018-07-28T08:46:29.923Z,22.10
2018-07-28T08:48:57.245Z,21.60
2018-07-28T08:51:24.355Z,21.20
2018-07-28T08:53:51.512Z,21.00
2018-07-28T08:56:19.027Z,20.80
2018-07-28T08:58:46.327Z,20.60
2018-07-28T09:03:40.832Z,20.30
2018-07-28T09:06:08.027Z,20.40
2018-07-28T09:08:35.266Z,20.50
2018-07-28T09:11:02.548Z,20.90
2018-07-28T09:13:29.763Z,21.20
2018-07-28T09:15:56.938Z,21.40
2018-07-28T09:18:24.160Z,21.80
2018-07-28T09:20:51.471Z,22.10
2018-07-28T09:23:18.708Z,22.70
2018-07-28T09:28:13.067Z,23.70
2018-07-28T09:30:40.437Z,24.00
2018-07-28T09:33:07.668Z,24.10
2018-07-28T09:35:34.983Z,24.00
2018-07-28T09:38:02.275Z,24.10
2018-07-28T09:40:29.643Z,24.20
2018-07-28T09:42:56.982Z,24.50
2018-07-28T09:45:24.186Z,25.00
2018-07-28T09:47:51.416Z,25.60
2018-07-28T09:50:18.791Z,26.00
2018-07-28T09:52:46.079Z,26.00
2018-07-28T09:55:13.249Z,25.80
2018-07-28T09:57:40.570Z,25.70
2018-07-28T10:00:07.906Z,25.70
2018-07-28T10:02:35.168Z,25.80
2018-07-28T10:05:02.584Z,25.70
2018-07-28T10:07:29.943Z,25.70
2018-07-28T10:09:57.269Z,25.60
2018-07-28T10:12:24.567Z,25.50
2018-07-28T10:14:54.280Z,25.40
2018-07-28T10:17:21.582Z,25.40
2018-07-28T10:19:48.866Z,25.70
2018-07-28T10:22:16.069Z,26.00
2018-07-28T10:24:43.447Z,26.60
2018-07-28T10:27:10.647Z,27.40
2018-07-28T10:29:37.879Z,27.80
2018-07-28T10:32:05.135Z,27.80
2018-07-28T10:34:33.092Z,27.60
2018-07-28T10:37:00.347Z,27.30
2018-07-28T10:39:27.534Z,26.70
2018-07-28T10:41:54.728Z,26.40
2018-07-28T10:44:21.912Z,26.70
2018-07-28T10:46:49.134Z,28.20
2018-07-28T10:51:43.590Z,29.10
2018-07-28T10:54:10.912Z,29.10
2018-07-28T10:56:38.169Z,28.90
2018-07-28T10:59:05.492Z,29.00
2018-07-28T11:01:32.794Z,28.30
2018-07-28T11:04:00.053Z,28.10
2018-07-28T11:06:27.234Z,28.20
2018-07-28T11:08:54.596Z,28.30
2018-07-28T11:11:22.056Z,29.00
2018-07-28T11:13:49.427Z,29.20
2018-07-28T11:16:16.698Z,29.10
2018-07-28T11:18:44.125Z,29.40
2018-07-28T11:21:11.431Z,29.30
2018-07-28T11:23:52.022Z,29.60
2018-07-28T11:26:19.319Z,29.60
2018-07-28T11:28:46.459Z,30.20
2018-07-28T11:31:25.168Z,30.80
2018-07-28T11:34:03.800Z,31.30
2018-07-28T11:36:42.506Z,31.40
2018-07-28T11:39:21.015Z,31.20
2018-07-28T11:41:59.547Z,31.50
2018-07-28T11:44:38.295Z,31.50
2018-07-28T11:47:05.506Z,30.50
2018-07-28T11:49:33.322Z,29.70
2018-07-28T11:52:00.523Z,29.80
2018-07-28T11:54:27.714Z,30.60
2018-07-28T11:56:54.913Z,30.70
2018-07-28T11:59:22.091Z,30.80
2018-07-28T12:01:49.303Z,31.00
2018-07-28T12:04:16.479Z,30.90
2018-07-28T12:06:43.717Z,30.40
2018-07-28T12:09:10.922Z,30.40
2018-07-28T12:11:38.184Z,30.80
2018-07-28T12:16:32.859Z,30.40
2018-07-28T12:19:00.055Z,30.80
2018-07-28T12:23:54.686Z,32.40
2018-07-28T12:26:21.875Z,32.70
2018-07-28T12:28:49.095Z,32.10
2018-07-28T12:31:16.327Z,31.80
2018-07-28T12:33:43.519Z,31.40
2018-07-28T12:36:10.825Z,30.60
2018-07-28T12:38:38.247Z,30.30
2018-07-28T12:41:05.463Z,30.30
2018-07-28T12:43:32.654Z,30.20
2018-07-28T12:45:59.840Z,30.20
2018-07-28T12:48:27.051Z,30.20
2018-07-28T12:50:54.247Z,30.40
2018-07-28T12:53:21.434Z,30.80
2018-07-28T12:55:48.643Z,31.20
2018-07-28T12:58:15.823Z,31.50
2018-07-28T13:00:43.027Z,31.10
2018-07-28T13:03:10.194Z,30.70
2018-07-28T13:05:37.379Z,30.30
2018-07-28T13:10:31.855Z,28.90
2018-07-28T13:12:59.012Z,28.30
2018-07-28T13:15:26.212Z,27.50
2018-07-28T13:17:53.455Z,24.30
2018-07-28T13:20:20.651Z,21.60
2018-07-28T13:25:15.053Z,20.60
2018-07-28T13:27:42.227Z,20.60
2018-07-28T13:30:09.435Z,20.60
2018-07-28T13:32:36.804Z,20.60
2018-07-28T13:35:04.058Z,20.50
2018-07-28T13:37:31.239Z,20.30
2018-07-28T13:39:58.431Z,20.30
2018-07-28T13:42:25.596Z,20.80
2018-07-28T13:44:52.759Z,22.40
2018-07-28T13:47:19.924Z,24.30
2018-07-28T13:49:47.124Z,25.90
2018-07-28T13:54:41.478Z,26.90
2018-07-28T13:57:08.651Z,27.60
2018-07-28T13:59:35.819Z,28.10
2018-07-28T14:02:03.043Z,27.90
2018-07-28T14:04:30.199Z,27.60
2018-07-28T14:09:24.607Z,27.10
2018-07-28T14:14:19.131Z,26.70
2018-07-28T14:16:46.369Z,26.50
2018-07-28T14:19:13.504Z,26.10
2018-07-28T14:21:40.695Z,25.60
2018-07-28T14:24:08.032Z,25.00
2018-07-28T14:26:35.214Z,24.50
2018-07-28T14:29:02.427Z,24.20
2018-07-28T14:33:56.854Z,23.60
2018-07-28T14:38:51.300Z,23.00
2018-07-28T14:41:18.470Z,22.90
2018-07-28T14:43:45.679Z,23.00
2018-07-28T14:46:12.893Z,23.10
2018-07-28T14:48:40.179Z,23.10
2018-07-28T14:51:07.392Z,23.10
2018-07-28T14:56:02.046Z,22.90
2018-07-28T14:58:29.260Z,22.80
2018-07-28T15:00:56.596Z,22.70
2018-07-28T15:03:23.774Z,22.70
2018-07-28T15:05:51.024Z,22.80
2018-07-28T15:08:18.247Z,23.10
2018-07-28T15:13:12.645Z,23.90
2018-07-28T15:15:39.836Z,24.20
2018-07-28T15:18:07.147Z,24.50
2018-07-28T15:20:34.327Z,24.70
2018-07-28T15:23:01.538Z,24.80
2018-07-28T15:25:28.718Z,24.90
2018-07-28T15:27:55.875Z,25.00
2018-07-28T15:30:23.067Z,25.10
2018-07-28T15:32:50.301Z,25.10
2018-07-28T15:37:44.662Z,25.80
2018-07-28T15:40:11.826Z,26.10
2018-07-28T15:42:38.984Z,26.20
2018-07-28T15:45:06.219Z,26.20
2018-07-28T15:47:33.382Z,26.20
2018-07-28T15:50:00.547Z,26.60
2018-07-28T15:52:27.819Z,26.70
2018-07-28T15:54:54.991Z,27.10
2018-07-28T15:57:22.165Z,27.00
2018-07-28T15:59:49.371Z,26.80
2018-07-28T16:02:16.570Z,26.50
2018-07-28T16:04:43.761Z,26.00
2018-07-28T16:07:10.967Z,25.70
2018-07-28T16:12:05.585Z,25.30
2018-07-28T16:14:32.774Z,25.10
2018-07-28T16:16:59.955Z,25.00
2018-07-28T16:19:27.220Z,24.90
2018-07-28T16:21:54.542Z,24.70
2018-07-28T16:24:21.719Z,24.60
2018-07-28T16:29:16.179Z,24.20
2018-07-28T16:31:43.400Z,24.10
2018-07-28T16:34:10.592Z,23.90
2018-07-28T16:36:37.760Z,23.70
2018-07-28T16:39:06.791Z,23.60
2018-07-28T16:41:33.964Z,23.60
2018-07-28T16:44:01.139Z,23.50
2018-07-28T16:46:28.417Z,23.50
2018-07-28T16:48:55.619Z,23.40
2018-07-28T16:51:22.802Z,23.40
2018-07-28T16:53:49.978Z,23.40
2018-07-28T16:56:17.155Z,23.40
2018-07-28T16:58:44.402Z,23.40
2018-07-28T17:01:11.575Z,23.50
2018-07-28T17:03:38.796Z,23.40
2018-07-28T17:06:06.040Z,23.40
2018-07-28T17:08:33.260Z,23.40
2018-07-28T17:11:00.483Z,23.40
2018-07-28T17:13:27.692Z,23.30
2018-07-28T17:15:54.902Z,23.30
2018-07-28T17:18:22.645Z,23.20
2018-07-28T17:20:49.863Z,23.10
2018-07-28T17:23:17.054Z,23.00
2018-07-28T17:25:44.279Z,22.90
2018-07-28T17:28:11.488Z,22.90
2018-07-28T17:30:38.774Z,22.90
2018-07-28T17:33:06.610Z,22.80
2018-07-28T17:35:33.863Z,22.60
2018-07-28T17:38:01.118Z,22.50
2018-07-28T17:40:28.421Z,22.30
2018-07-28T17:42:55.666Z,22.20
2018-07-28T17:45:22.904Z,22.10
2018-07-28T17:47:50.090Z,21.90
2018-07-28T17:50:17.303Z,21.90
2018-07-28T17:52:44.523Z,21.80
2018-07-28T17:55:11.731Z,21.80
2018-07-28T18:00:07.472Z,21.60
2018-07-28T18:02:34.690Z,21.60
2018-07-28T18:05:01.895Z,21.60
2018-07-28T18:07:29.076Z,21.60
2018-07-28T18:09:56.215Z,21.60
2018-07-28T18:12:23.374Z,21.60
2018-07-28T18:14:50.539Z,21.60
2018-07-28T18:17:17.695Z,21.50
2018-07-28T18:19:44.864Z,21.60
2018-07-28T18:22:12.160Z,21.60
2018-07-28T18:27:06.581Z,21.60
2018-07-28T18:29:33.731Z,21.70
2018-07-28T18:32:00.934Z,21.60
2018-07-28T18:34:28.408Z,21.60
2018-07-28T18:36:55.553Z,21.60
2018-07-28T18:39:22.714Z,21.70
2018-07-28T18:41:49.928Z,21.60
2018-07-28T18:44:17.029Z,21.60
2018-07-28T18:46:44.196Z,21.60
2018-07-28T18:49:11.365Z,21.50
2018-07-28T18:51:38.553Z,21.50
2018-07-28T18:54:05.717Z,21.50
2018-07-28T18:56:32.924Z,21.50
2018-07-28T18:59:00.085Z,21.50
2018-07-28T19:01:27.279Z,21.50
2018-07-28T19:03:54.533Z,21.50
2018-07-28T19:06:22.619Z,21.40
2018-07-28T19:08:55.717Z,21.40
2018-07-28T19:13:55.866Z,21.30
2018-07-28T19:18:55.983Z,21.30
2018-07-28T19:21:23.254Z,21.30
2018-07-28T19:23:56.276Z,21.30
2018-07-28T19:26:23.595Z,21.30
2018-07-28T19:28:56.758Z,21.30
2018-07-28T19:33:51.247Z,21.30
2018-07-28T19:36:24.214Z,21.20
2018-07-28T19:38:51.431Z,21.20
2018-07-28T19:41:19.019Z,21.20
2018-07-28T19:46:13.427Z,21.10
2018-07-28T19:48:40.631Z,21.10
2018-07-28T19:51:07.838Z,21.10
2018-07-28T19:53:35.033Z,21.10
2018-07-28T19:58:29.496Z,21.00
2018-07-28T20:00:56.777Z,21.00
2018-07-28T20:03:23.962Z,21.00
2018-07-28T20:05:51.157Z,21.00
2018-07-28T20:08:18.395Z,20.90
2018-07-28T20:10:45.574Z,20.90
2018-07-28T20:13:12.791Z,20.90
2018-07-28T20:15:40.048Z,20.80
2018-07-28T20:18:07.238Z,20.80
2018-07-28T20:20:34.430Z,20.70
2018-07-28T20:23:01.669Z,20.70
2018-07-28T20:25:28.874Z,20.60
2018-07-28T20:30:23.308Z,20.50
2018-07-28T20:32:50.583Z,20.50
2018-07-28T20:35:17.811Z,20.50
2018-07-28T20:37:45.029Z,20.40
2018-07-28T20:40:12.251Z,20.40
2018-07-28T20:42:39.703Z,20.40
2018-07-28T20:45:06.899Z,20.30
2018-07-28T20:47:34.222Z,20.30
2018-07-28T20:50:01.451Z,20.30
2018-07-28T20:52:28.651Z,20.20
2018-07-28T20:54:55.848Z,20.20
2018-07-28T20:59:50.259Z,20.20
2018-07-28T21:02:17.643Z,20.10
2018-07-28T21:04:44.832Z,20.10
2018-07-28T21:07:12.048Z,20.00
2018-07-28T21:09:39.368Z,19.90
2018-07-28T21:12:06.608Z,19.70
2018-07-28T21:14:33.790Z,19.70
2018-07-28T21:17:01.003Z,19.60
2018-07-28T21:19:28.187Z,19.50
2018-07-28T21:21:55.396Z,19.50
2018-07-28T21:24:22.594Z,19.50
2018-07-28T21:26:49.794Z,19.50
2018-07-28T21:29:17.003Z,19.50
2018-07-28T21:31:44.186Z,19.50
2018-07-28T21:34:11.392Z,19.40
2018-07-28T21:36:38.592Z,19.40
2018-07-28T21:39:06.990Z,19.40
2018-07-28T21:41:34.278Z,19.30
2018-07-28T21:44:01.479Z,19.30
2018-07-28T21:46:28.662Z,19.20
2018-07-28T21:48:55.838Z,19.20
2018-07-28T21:51:23.011Z,19.10
2018-07-28T21:53:50.230Z,19.20
2018-07-28T21:56:22.028Z,19.10
2018-07-28T21:58:49.243Z,19.10
2018-07-28T22:01:16.439Z,19.10
2018-07-28T22:03:43.626Z,19.10
2018-07-28T22:06:10.822Z,19.10
2018-07-28T22:08:37.979Z,19.10
2018-07-28T22:11:05.227Z,19.20
2018-07-28T22:13:32.544Z,19.20
2018-07-28T22:15:59.971Z,19.30
2018-07-28T22:18:27.286Z,19.40
2018-07-28T22:20:54.471Z,19.30
2018-07-28T22:23:21.679Z,19.40
2018-07-28T22:25:48.867Z,19.40
2018-07-28T22:28:16.215Z,19.40
2018-07-28T22:30:43.375Z,19.50
2018-07-28T22:33:10.648Z,19.50
2018-07-28T22:35:37.940Z,19.50
2018-07-28T22:38:05.271Z,19.70
2018-07-28T22:40:32.454Z,19.70
2018-07-28T22:42:59.628Z,19.70
2018-07-28T22:45:26.894Z,19.70
2018-07-28T22:47:54.086Z,19.60
2018-07-28T22:50:21.262Z,19.60
2018-07-28T22:52:48.420Z,19.60
2018-07-28T22:55:15.723Z,19.50
2018-07-28T22:57:42.913Z,19.40
2018-07-28T23:00:10.102Z,19.40
2018-07-28T23:02:37.361Z,19.40
2018-07-28T23:05:05.052Z,19.50
2018-07-28T23:07:32.223Z,19.50
2018-07-28T23:09:59.447Z,19.50
2018-07-28T23:12:26.630Z,19.60
2018-07-28T23:14:53.811Z,19.60
2018-07-28T23:17:21.008Z,19.70
2018-07-28T23:19:48.195Z,19.70
2018-07-28T23:22:15.390Z,19.70
2018-07-28T23:24:42.580Z,19.70
2018-07-28T23:27:09.763Z,19.70
2018-07-28T23:29:36.975Z,19.70
2018-07-28T23:32:04.179Z,19.70
2018-07-28T23:34:31.408Z,19.70
2018-07-28T23:36:58.679Z,19.80
2018-07-28T23:39:25.985Z,19.80
2018-07-28T23:41:53.236Z,19.70
2018-07-28T23:44:20.571Z,19.70
2018-07-28T23:46:47.932Z,19.70
2018-07-28T23:49:15.116Z,19.60
2018-07-28T23:51:42.372Z,19.60
2018-07-28T23:54:09.723Z,19.50
2018-07-28T23:56:36.939Z,19.40
2018-07-28T23:59:04.333Z,19.30
